createdAt,value
2022-08-25T00:02:56.655Z,22.84
2022-08-25T00:08:06.099Z,22.91
2022-08-25T00:13:08.663Z,22.90
2022-08-25T00:18:16.625Z,22.87
2022-08-25T00:23:21.990Z,22.81
2022-08-25T00:28:24.095Z,22.76
2022-08-25T00:33:26.321Z,22.83
2022-08-25T00:38:28.115Z,22.79
2022-08-25T00:43:34.399Z,22.71
2022-08-25T00:48:37.489Z,22.70
2022-08-25T00:53:41.390Z,22.67
2022-08-25T00:58:43.923Z,22.69
2022-08-25T01:03:47.239Z,22.71
2022-08-25T01:08:48.956Z,22.60
2022-08-25T01:13:56.541Z,22.49
2022-08-25T01:18:59.323Z,22.45
2022-08-25T01:24:01.557Z,22.46
2022-08-25T01:29:23.005Z,22.45
2022-08-25T01:34:31.149Z,22.39
2022-08-25T01:39:35.097Z,22.38
2022-08-25T01:44:47.832Z,22.27
2022-08-25T01:49:49.612Z,22.28
2022-08-25T01:54:52.003Z,22.28
2022-08-25T01:59:53.760Z,22.24
2022-08-25T02:04:55.444Z,22.15
2022-08-25T02:09:57.164Z,22.17
2022-08-25T02:15:01.846Z,22.14
2022-08-25T02:20:07.722Z,22.13
2022-08-25T02:25:10.623Z,22.10
2022-08-25T02:30:16.203Z,22.05
2022-08-25T02:35:18.244Z,22.03
2022-08-25T02:40:21.477Z,22.03
2022-08-25T02:45:23.248Z,22.03
2022-08-25T02:50:26.261Z,21.97
2022-08-25T02:55:28.136Z,21.97
2022-08-25T03:00:54.651Z,21.97
2022-08-25T03:05:57.420Z,21.93
2022-08-25T03:11:00.556Z,21.92
2022-08-25T03:16:04.184Z,21.89
2022-08-25T03:21:07.588Z,21.90
2022-08-25T03:26:28.358Z,21.89
2022-08-25T03:31:30.030Z,21.85
2022-08-25T03:36:33.004Z,21.82
2022-08-25T03:41:34.790Z,21.82
2022-08-25T03:46:43.516Z,21.73
2022-08-25T03:51:49.230Z,21.76
2022-08-25T03:56:51.311Z,21.75
2022-08-25T04:01:55.377Z,21.68
2022-08-25T04:06:58.158Z,21.61
2022-08-25T04:11:59.746Z,21.53
2022-08-25T04:17:01.442Z,21.41
2022-08-25T04:22:03.197Z,21.41
2022-08-25T04:27:05.587Z,21.38
2022-08-25T04:32:10.746Z,21.36
2022-08-25T04:37:13.451Z,21.34
2022-08-25T04:42:15.333Z,21.27
2022-08-25T04:47:17.035Z,21.24
2022-08-25T04:52:19.071Z,21.16
2022-08-25T04:57:20.810Z,21.13
2022-08-25T05:02:25.270Z,21.20
2022-08-25T05:07:27.309Z,21.27
2022-08-25T05:12:29.112Z,21.18
2022-08-25T05:17:30.880Z,21.22
2022-08-25T05:22:33.423Z,21.26
2022-08-25T05:27:35.125Z,21.28
2022-08-25T05:32:37.228Z,21.29
2022-08-25T05:37:38.904Z,21.30
2022-08-25T05:42:41.142Z,21.32
2022-08-25T05:47:44.292Z,21.31
2022-08-25T05:52:46.764Z,21.30
2022-08-25T05:57:49.045Z,21.37
2022-08-25T06:02:51.136Z,21.39
2022-08-25T06:07:52.945Z,21.44
2022-08-25T06:12:54.745Z,21.47
2022-08-25T06:18:01.665Z,21.50
2022-08-25T06:23:05.126Z,21.55
2022-08-25T06:28:06.987Z,21.56
2022-08-25T06:33:08.880Z,21.51
2022-08-25T06:38:12.059Z,21.54
2022-08-25T06:43:14.016Z,21.54
2022-08-25T06:48:16.484Z,21.64
2022-08-25T06:53:18.108Z,21.67
2022-08-25T06:58:19.790Z,21.70
2022-08-25T07:08:26.670Z,21.83
2022-08-25T07:13:28.362Z,21.95
2022-08-25T07:18:32.612Z,22.10
2022-08-25T07:23:34.336Z,22.22
2022-08-25T07:28:36.819Z,22.33
2022-08-25T07:33:38.608Z,22.47
2022-08-25T07:38:40.722Z,22.66
2022-08-25T07:43:44.729Z,22.78
2022-08-25T07:48:53.189Z,22.93
2022-08-25T07:53:55.282Z,23.13
2022-08-25T07:58:59.720Z,23.32
2022-08-25T08:04:03.766Z,23.52
2022-08-25T08:09:05.760Z,23.71
2022-08-25T08:14:08.438Z,23.88
2022-08-25T08:19:10.147Z,24.07
2022-08-25T08:24:25.027Z,24.21
2022-08-25T08:29:33.967Z,24.45
2022-08-25T08:34:37.211Z,24.61
2022-08-25T08:39:38.897Z,24.80
2022-08-25T08:44:46.619Z,24.97
2022-08-25T08:50:37.912Z,25.14
2022-08-25T08:55:52.889Z,25.33
2022-08-25T09:00:58.381Z,25.49
2022-08-25T09:06:06.926Z,25.71
2022-08-25T09:11:19.200Z,25.82
2022-08-25T09:16:56.989Z,25.98
2022-08-25T09:22:35.723Z,26.20
2022-08-25T09:27:59.726Z,26.55
2022-08-25T09:33:05.161Z,26.68
2022-08-25T09:38:11.928Z,26.96
2022-08-25T09:43:28.731Z,27.07
2022-08-25T09:48:43.009Z,26.91
2022-08-25T09:54:14.253Z,26.94
2022-08-25T09:59:19.505Z,26.89
2022-08-25T10:04:40.102Z,27.09
2022-08-25T10:09:43.485Z,27.35
2022-08-25T10:14:52.182Z,27.48
2022-08-25T10:20:19.937Z,27.56
2022-08-25T10:25:28.467Z,27.93
2022-08-25T10:30:39.832Z,28.18
2022-08-25T10:35:59.992Z,28.28
2022-08-25T10:41:24.958Z,28.80
2022-08-25T10:46:57.354Z,29.02
2022-08-25T10:52:08.521Z,29.22
2022-08-25T10:57:29.314Z,29.24
2022-08-25T11:03:14.951Z,29.34
2022-08-25T11:08:34.642Z,29.62
2022-08-25T11:13:55.563Z,29.91
2022-08-25T11:19:24.905Z,30.19
2022-08-25T11:25:04.009Z,30.03
2022-08-25T11:30:17.315Z,29.92
2022-08-25T11:35:47.306Z,29.81
2022-08-25T11:40:52.995Z,29.51
2022-08-25T11:46:18.775Z,29.42
2022-08-25T11:51:33.800Z,29.52
2022-08-25T11:56:41.732Z,29.45
2022-08-25T12:01:43.402Z,29.44
2022-08-25T12:07:07.097Z,29.43
2022-08-25T12:12:55.439Z,29.93
2022-08-25T12:18:16.475Z,30.15
2022-08-25T12:23:45.015Z,30.29
2022-08-25T12:29:02.314Z,30.21
2022-08-25T12:34:14.899Z,30.28
2022-08-25T12:39:24.390Z,30.37
2022-08-25T12:44:40.434Z,30.37
2022-08-25T12:49:42.174Z,30.34
2022-08-25T12:55:06.163Z,30.25
2022-08-25T13:05:45.941Z,30.42
2022-08-25T13:11:36.925Z,30.47
2022-08-25T13:16:38.945Z,30.27
2022-08-25T13:21:43.382Z,30.22
2022-08-25T13:26:54.411Z,30.23
2022-08-25T13:31:59.859Z,30.20
2022-08-25T13:37:29.552Z,30.48
2022-08-25T13:42:31.936Z,30.37
2022-08-25T13:47:43.766Z,30.52
2022-08-25T13:52:53.702Z,30.43
2022-08-25T13:57:58.776Z,30.48
2022-08-25T14:03:03.469Z,30.59
2022-08-25T14:08:32.643Z,30.43
2022-08-25T14:13:35.110Z,30.60
2022-08-25T14:18:37.264Z,30.48
2022-08-25T14:23:39.667Z,30.50
2022-08-25T14:28:41.483Z,30.59
2022-08-25T14:33:52.899Z,30.54
2022-08-25T14:38:56.399Z,30.45
2022-08-25T14:43:58.178Z,30.34
2022-08-25T14:49:02.635Z,30.36
2022-08-25T14:54:07.361Z,30.19
2022-08-25T14:59:10.762Z,30.04
2022-08-25T15:04:20.554Z,29.85
2022-08-25T15:09:23.928Z,29.25
2022-08-25T15:14:28.535Z,28.51
2022-08-25T15:19:34.659Z,28.42
2022-08-25T15:24:37.993Z,28.29
2022-08-25T15:29:41.755Z,28.44
2022-08-25T15:34:43.991Z,28.37
2022-08-25T15:39:48.999Z,28.16
2022-08-25T15:44:53.452Z,28.06
2022-08-25T15:50:07.423Z,27.85
2022-08-25T15:55:10.751Z,27.80
2022-08-25T16:00:13.509Z,27.60
2022-08-25T16:05:16.469Z,27.42
2022-08-25T16:10:18.492Z,27.39
2022-08-25T16:15:24.070Z,27.28
2022-08-25T16:20:33.532Z,27.22
2022-08-25T16:25:39.919Z,27.14
2022-08-25T16:30:52.487Z,27.13
2022-08-25T16:36:05.980Z,27.06
2022-08-25T16:41:15.233Z,26.98
2022-08-25T16:46:18.646Z,26.83
2022-08-25T16:51:22.786Z,26.74
2022-08-25T16:56:28.445Z,26.66
2022-08-25T17:01:34.200Z,26.51
2022-08-25T17:06:39.575Z,26.42
2022-08-25T17:11:47.385Z,26.24
2022-08-25T17:16:51.291Z,26.11
2022-08-25T17:21:54.907Z,26.00
2022-08-25T17:26:56.849Z,25.90
2022-08-25T17:31:59.254Z,25.81
2022-08-25T17:37:01.032Z,25.80
2022-08-25T17:42:04.919Z,25.79
2022-08-25T17:47:06.777Z,25.65
2022-08-25T17:52:09.367Z,25.55
2022-08-25T17:57:11.018Z,25.41
2022-08-25T18:02:14.897Z,25.35
2022-08-25T18:07:16.660Z,25.48
2022-08-25T18:12:18.944Z,25.27
2022-08-25T18:17:23.048Z,25.28
2022-08-25T18:22:25.198Z,25.18
2022-08-25T18:27:28.586Z,24.98
2022-08-25T18:32:39.446Z,24.96
2022-08-25T18:38:06.063Z,25.01
2022-08-25T18:43:11.789Z,24.65
2022-08-25T18:48:18.623Z,24.50
2022-08-25T18:53:30.666Z,24.44
2022-08-25T18:58:39.760Z,24.46
2022-08-25T19:03:43.443Z,24.35
2022-08-25T19:08:45.225Z,24.32
2022-08-25T19:13:48.418Z,24.29
2022-08-25T19:18:52.069Z,24.28
2022-08-25T19:23:55.399Z,24.14
2022-08-25T19:28:57.268Z,24.04
2022-08-25T19:33:59.265Z,24.19
2022-08-25T19:39:02.162Z,24.14
2022-08-25T19:44:04.061Z,24.13
2022-08-25T19:49:08.755Z,23.98
2022-08-25T19:54:12.300Z,23.97
2022-08-25T19:59:14.118Z,23.99
2022-08-25T20:04:16.107Z,23.87
2022-08-25T20:09:35.757Z,23.84
2022-08-25T20:14:40.276Z,23.99
2022-08-25T20:19:42.973Z,24.09
2022-08-25T20:24:57.677Z,24.09
2022-08-25T20:29:59.838Z,24.18
2022-08-25T20:35:08.959Z,23.60
2022-08-25T20:40:15.325Z,23.40
2022-08-25T20:45:18.536Z,23.42
2022-08-25T20:50:20.637Z,23.39
2022-08-25T20:55:22.609Z,23.31
2022-08-25T21:00:24.838Z,23.21
2022-08-25T21:05:26.797Z,23.24
2022-08-25T21:10:28.450Z,23.12
2022-08-25T21:15:30.786Z,23.08
2022-08-25T21:20:34.576Z,23.05
2022-08-25T21:25:41.710Z,23.02
2022-08-25T21:30:47.147Z,22.96
2022-08-25T21:35:49.048Z,22.83
2022-08-25T21:40:51.813Z,22.91
2022-08-25T21:45:53.608Z,22.94
2022-08-25T21:51:15.536Z,22.72
2022-08-25T21:56:22.467Z,22.70
2022-08-25T22:01:27.991Z,22.65
2022-08-25T22:06:30.379Z,22.71
2022-08-25T22:11:33.927Z,22.69
2022-08-25T22:16:39.386Z,22.71
2022-08-25T22:21:43.076Z,22.66
2022-08-25T22:26:48.448Z,22.56
2022-08-25T22:31:52.802Z,22.70
2022-08-25T22:36:54.715Z,22.72
2022-08-25T22:42:02.934Z,23.11
2022-08-25T22:47:04.881Z,23.02
2022-08-25T22:52:06.959Z,23.27
2022-08-25T22:57:11.793Z,22.82
2022-08-25T23:02:13.693Z,22.80
2022-08-25T23:07:15.385Z,22.96
2022-08-25T23:12:17.123Z,23.24
2022-08-25T23:17:18.772Z,23.13
2022-08-25T23:22:22.612Z,22.85
2022-08-25T23:27:25.336Z,23.15
2022-08-25T23:32:28.133Z,22.68
2022-08-25T23:37:30.021Z,22.88
2022-08-25T23:42:31.919Z,22.88
2022-08-25T23:47:33.650Z,22.53
2022-08-25T23:52:36.058Z,22.62
2022-08-25T23:57:37.778Z,22.54
